Limington, Maine
Current Conditions -  °F | °C
As of 11:51 AM on Friday 28 Nov 2014 (Local Time) from KPWM Reporting Station
Overcast Overcast  
Wind Chill: 21°   Ceiling: 1700
Heat Index: 29°   Visibility: 10mi
Dew Point: 21°   Wind: 8mph
Humidity: 72%   Direction: 290°WNW
Pressure: 30.04"   Gusts: NA
Location:  43.76°N, 70.67°W
Report Text: KPWM 281651Z 29007KT 10SM BKN017 BKN070 OVC100 M02/M06 A3004 RMK AO2 SLP174 T10171061
Loading
Personal Weather Stations






























Interactive Weather Map New forecast layout! Learn more

10-Day Weather Forecast

Advertisements
Track Severe Weather on mobile